Station CPXC1 - Cal Poly Pier, CA Image indicating link to RSS feed of recent meteorological observations for station CPXC1


Conditions at CPXC1 as of
(7:06 am PDT)
1406 GMT on 09/01/2026:
     

Click on the graph icon in the table below to see a time series plot of the last five days of that observation.

5-day plot - Wind Direction Wind Direction (WDIR): N ( 10 deg true )
5-day plot - Wind Speed Wind Speed (WSPD): 2.9 kts
5-day plot - Atmospheric Pressure Atmospheric Pressure (PRES):30.02 in
5-day plot - Air Temperature Air Temperature (ATMP): 56.5 °F
5-day plot - Dew Point Dew Point (DEWP): 52.2 °F
5-day plot - Wind Speed at 10 Meters Wind Speed at 10 meters (WSPD10M): 3.9 kts
5-day plot - Wind Speed at 20 Meters Wind Speed at 20 meters (WSPD20M): 3.9 kts
5-day plot -  Wind Speed, Wind Gust and Atmospheric Pressure Combined plot of Wind Speed, Gust, and Air Pressure
Previous observations
TIME
(PDT)
5-day plot - Wind Direction
WDIR
 
5-day plot - Wind Speed
WSPD
kts
5-day plot - Wind Gust
GST
kts
5-day plot - Wave Height
WVHT
ft
5-day plot - Dominant Wave Period
DPD
sec
5-day plot - Average Wave Period
APD
sec
5-day plot - Mean Wave Direction
MWD
 
5-day plot - Atmospheric Pressure
PRES
in
5-day plot - Pressure Tendency
PTDY
in
5-day plot - Air Temperature
ATMP
°F
5-day plot - Water Temperature
WTMP
°F
5-day plot - Dew Point
DEWP
°F
5-day plot - Salinity
SAL
psu
5-day plot - Visibility
VIS
nmi
5-day plot - Tide (above MLLW)
TIDE
ft
2026-09-01 07:00 amNNE 4.1-----30.02+0.01 56.5- 52.2---
2026-09-01 06:50 am N 6.0-----30.02- 56.7- 52.3 33.43--
2026-09-01 06:40 am N 5.1-----30.02- 56.3- 51.8 33.43--
2026-09-01 06:30 am N 4.1-----30.02- 56.3- 52.0 33.43--
2026-09-01 06:20 am N 4.1-----30.02- 56.1- 51.8 33.43--
2026-09-01 06:10 amNNE 1.9-----30.02- 57.2- 53.2 33.44--
2026-09-01 06:06 am N 2.9-----30.02- 57.0- 53.1 33.44--
2026-09-01 06:00 am- 0.0-----30.02+0.02 57.0- 52.9 33.44--
2026-09-01 05:50 am N 2.9-----30.02- 57.6- 53.6 33.44--
2026-09-01 05:40 amNNW 1.9-----30.01- 57.9- 54.1 33.44--
2026-09-01 05:30 am N 2.9-----30.01- 57.9- 53.8 33.44--
2026-09-01 05:20 am N 1.9-----30.01- 58.5- 54.5 33.44--
2026-09-01 05:10 am- 0.0-----30.01- 58.5- 54.5 33.44--
2026-09-01 05:06 amNNW 2.9-----30.01- 58.6- 54.5 33.44--
2026-09-01 05:00 am NW 1.0-----30.01+0.00 58.6- 54.5 33.44--
2026-09-01 04:50 am- 0.0-----30.01- 59.0- 54.7 33.43--
2026-09-01 04:40 amENE 1.9-----30.01- 59.0- 54.5 33.43--
2026-09-01 04:30 amNNE 1.9-----30.01- 59.2- 54.7 33.43--
2026-09-01 04:20 am E 1.9-----30.01- 58.8- 54.5 33.42--
2026-09-01 04:10 amSSE 2.9-----30.01- 58.8- 54.5 33.42--
2026-09-01 04:06 am SE 4.1-----30.01- 59.0- 54.7 33.42--
2026-09-01 04:00 am- 0.0-----30.01+0.01 58.8- 54.5 33.42--
2026-09-01 03:50 amNNE 1.0-----30.01- 59.0- 54.5 33.43--
2026-09-01 03:40 am- 0.0-----30.01- 58.5- 54.1 33.43--
2026-09-01 03:30 am N 1.9-----30.01- 58.1- 53.6 33.43--
2026-09-01 03:20 amNNE 1.9-----30.00- 57.9- 53.4 33.43--
2026-09-01 03:10 amNNE 1.9-----30.01- 57.6- 53.2 33.43--
2026-09-01 03:06 am- 0.0-----30.00- 57.6- 53.2 33.43--
2026-09-01 03:00 am N 2.9-----30.00+0.00 57.2- 53.1 33.43--
2026-09-01 02:50 amNNE 2.9-----30.01- 57.0- 52.7 33.43--
2026-09-01 02:40 am N 4.1-----30.01- 56.8- 52.5 33.43--
2026-09-01 02:30 amNNE 5.1-----30.01- 56.8- 52.5 33.43--
2026-09-01 02:20 amNNE 4.1-----30.01- 56.5- 52.2 33.44--
2026-09-01 02:10 amNNE 5.1-----30.00- 56.5- 52.2 33.44--
2026-09-01 02:06 am N 5.1-----30.01- 56.3- 52.0 33.44--
2026-09-01 02:00 am N 5.1-----30.01+0.01 56.1- 51.8 33.44--
2026-09-01 01:50 amNNW 8.0-----30.01- 55.9- 51.6 33.43--
2026-09-01 01:40 amNNE 7.0-----30.01- 56.1- 51.6 33.43--
2026-09-01 01:30 amNNW 1.0-----30.00- 57.2- 52.9 33.43--
2026-09-01 01:20 am N 6.0-----30.00- 56.8- 52.5 33.44--
2026-09-01 01:10 am N 5.1-----30.00- 56.7- 52.2 33.44--
2026-09-01 01:06 am N 5.1-----29.99- 56.3- 51.8 33.44--
2026-09-01 01:00 am N 5.1-----30.00+0.01 56.8- 52.2 33.44--
2026-09-01 12:50 am NW 4.1-----30.00- 56.8- 52.2 33.41--
2026-09-01 12:40 am N 2.9-----30.00- 56.5- 52.0 33.41--
2026-09-01 12:30 am N 4.1-----30.00- 56.7- 52.0 33.41--
2026-09-01 12:20 am N 2.9-----30.00- 56.7- 51.8 33.43--
2026-09-01 12:10 am N 4.1-----30.00- 57.0- 52.2 33.43--
2026-09-01 12:06 amNNW 1.9-----30.00- 57.4- 52.5 33.43--
2026-09-01 12:00 am N 2.9-----30.00+0.03 57.4- 52.3 33.43--
2026-08-31 11:50 pm NE 1.9-----30.00- 57.4- 52.2 33.40--
2026-08-31 11:40 pmNNE 5.1-----30.00- 57.9- 52.5 33.40--
2026-08-31 11:30 pm N 1.9-----30.01- 58.1- 52.5 33.40--
2026-08-31 11:20 pmNNW 1.9-----30.00- 58.5- 52.9 33.45--
2026-08-31 11:10 pm N 1.9-----30.00- 58.6- 53.1 33.45--
2026-08-31 11:06 pm N 2.9-----30.00- 58.6- 53.1 33.45--
2026-08-31 11:00 pmNNW 1.0-----30.00+0.05 58.8- 53.1 33.45--
2026-08-31 10:50 pmNNW 1.9-----29.99- 58.8- 52.9 33.44--
2026-08-31 10:40 pm N 5.1-----29.99- 58.5- 52.5 33.44--
2026-08-31 10:30 pm N 2.9-----29.99- 59.0- 52.9 33.44--
2026-08-31 10:20 pm N 2.9-----29.99- 59.4- 53.1 33.46--
2026-08-31 10:10 pm N 1.9-----29.98- 59.2- 52.7 33.46--
2026-08-31 10:06 pm N 2.9-----29.98- 59.2- 52.7 33.46--
2026-08-31 10:00 pm NW 4.1-----29.98+0.05 59.7- 53.2 33.46--
2026-08-31 09:50 pm N 1.9-----29.98- 60.3- 53.1 33.43--
2026-08-31 09:40 pm N 1.9-----29.98- 59.9- 52.7 33.43--
2026-08-31 09:30 pm NW 4.1-----29.98- 59.9- 52.5 33.43--
2026-08-31 09:20 pm NW 4.1-----29.98- 60.3- 53.1 33.44--
2026-08-31 09:10 pm NW 5.1-----29.98- 60.1- 52.7 33.44--
2026-08-31 09:06 pmNNW 6.0-----29.98- 60.3- 52.9 33.44--
2026-08-31 09:00 pmNNW 6.0-----29.97+0.04 60.4- 53.2 33.44--
2026-08-31 08:50 pm NW 7.0-----29.97- 60.8- 53.2 33.44--
2026-08-31 08:40 pm NW 6.0-----29.96- 61.0- 53.4 33.44--
2026-08-31 08:30 pm NW 6.0-----29.96- 61.3- 53.6 33.44--
2026-08-31 08:20 pm NW 7.0-----29.95- 61.7- 53.6 33.44--
2026-08-31 08:10 pm NW 8.9-----29.95- 62.1- 53.6 33.44--
2026-08-31 08:06 pmWNW 8.0-----29.95- 62.1- 53.6 33.44--
2026-08-31 08:00 pmWNW 8.9-----29.95+0.01 62.4- 53.8 33.44--
2026-08-31 07:50 pmWNW 11.1-----29.94- 63.0- 53.8---
2026-08-31 07:40 pmWNW 11.1-----29.94- 63.1- 54.0---
2026-08-31 07:30 pmWNW 11.1-----29.94- 63.5- 54.3---
2026-08-31 07:20 pm W 11.1-----29.94- 63.7- 54.5---
2026-08-31 07:10 pm W 14.0-----29.93- 63.3- 54.5---
2026-08-31 07:06 pm W 17.1-----29.93- 63.1- 54.7---
2026-08-31 07:00 pm W 13.0-----29.93-0.02 63.5- 54.9---
2026-08-31 06:50 pm W 15.0-----29.93- 63.7- 54.9---
2026-08-31 06:40 pm W 8.9-----29.93- 64.2- 55.2---
2026-08-31 06:30 pm W 14.0-----29.93- 63.9- 55.0---
2026-08-31 06:20 pm W 15.9-----29.93- 63.9- 55.2 33.44--
2026-08-31 06:10 pm W 17.1-----29.93- 63.7- 55.0 33.44--
2026-08-31 06:06 pm W 14.0-----29.93- 64.0- 54.9 33.44--
2026-08-31 06:00 pmWNW 11.1-----29.93-0.04 63.9- 55.0 33.44--
2026-08-31 05:50 pm W 13.0-----29.93- 64.2- 54.9 33.44--
2026-08-31 05:40 pm W 12.0-----29.94- 64.4- 55.2 33.44--
2026-08-31 05:30 pm W 15.9-----29.93- 64.0- 54.7 33.44--
2026-08-31 05:21 pm W 15.9-----29.93- 64.2- 55.0 33.44--
2026-08-31 05:06 pm W 19.0-----29.93- 63.9- 55.0 33.44--
2026-08-31 05:00 pm W 18.1-----29.93-0.05 63.7- 55.0 33.44--
2026-08-31 04:50 pm W 19.0-----29.94- 63.7- 55.2 33.44--
2026-08-31 04:40 pm W 17.1-----29.94- 63.9- 55.4 33.44--
2026-08-31 04:06 pm W 22.9-----29.95- 63.0- 54.9 33.44--
2026-08-31 04:00 pm W 22.0-----29.95-0.05 63.1- 55.0 33.44--
2026-08-31 03:50 pm W 21.0-----29.96- 63.1- 55.0 33.44--
2026-08-31 03:40 pm W 20.0-----29.96- 63.0- 55.0 33.44--
2026-08-31 03:30 pm W 22.0-----29.96- 62.6- 54.7 33.44--
2026-08-31 03:20 pm W 17.1-----29.96- 62.6- 54.5 33.44--
2026-08-31 03:10 pm W 15.9-----29.97- 62.6- 54.7 33.44--
2026-08-31 03:06 pm W 15.9-----29.96- 62.8- 54.1 33.44--
2026-08-31 03:00 pm W 14.0-----29.97-0.04 62.6- 54.5 33.44--
2026-08-31 02:50 pm W 15.0-----29.97- 62.6- 54.7 33.44--
2026-08-31 02:40 pm W 15.9-----29.97- 62.4- 54.1 33.44--
2026-08-31 02:30 pm W 15.9-----29.98- 62.1- 54.5 33.44--
2026-08-31 02:20 pm W 13.0-----29.98- 61.7- 54.0---
2026-08-31 02:10 pm W 14.0-----29.98- 61.9- 54.5---
2026-08-31 02:06 pm W 19.0-----29.98- 61.2- 53.6---
2026-08-31 02:00 pm W 13.0-----29.98-0.03 61.3- 54.1---
2026-08-31 01:50 pm W 13.0-----29.98- 61.5- 54.0 33.44--
2026-08-31 01:40 pm W 15.0-----29.99- 61.2- 54.1 33.44--
2026-08-31 01:30 pm W 12.0-----29.99- 61.3- 53.6 33.44--
2026-08-31 01:20 pmWSW 9.9-----29.99- 61.3- 53.8 33.44--
2026-08-31 01:10 pm W 9.9-----30.00- 61.2- 53.6 33.44--
2026-08-31 01:06 pm W 8.0-----30.00- 61.0- 53.4 33.44--
2026-08-31 01:00 pmWSW 15.0-----30.00-0.01 60.6- 53.4 33.44--
2026-08-31 12:50 pm W 14.0-----30.00- 60.6- 53.6 33.44--
2026-08-31 12:40 pm W 9.9-----30.00- 60.8- 53.6---
2026-08-31 12:30 pmWSW 11.1-----30.01- 60.8- 53.6---
2026-08-31 12:20 pm W 14.0-----30.01- 60.6- 53.2---
2026-08-31 12:10 pm W 8.9-----30.01- 61.0- 54.0---
2026-08-31 12:06 pm W 8.9-----30.01- 61.2- 54.0---
2026-08-31 12:00 pmWSW 7.0-----30.01+0.01 60.6- 53.4---
2026-08-31 11:50 am SW 7.0-----30.01- 60.6- 53.1---
2026-08-31 11:40 am SW 7.0-----30.01- 60.6- 53.2---
2026-08-31 11:30 am SW 4.1-----30.02- 60.3- 53.1---
2026-08-31 11:20 am SW 7.0-----30.02- 60.3- 53.1 33.44--
2026-08-31 11:10 amWSW 6.0-----30.02- 60.1- 53.4 33.44--
2026-08-31 11:06 am W 8.0-----30.01- 60.1- 53.4 33.44--
2026-08-31 11:00 amWSW 11.1-----30.01+0.02 60.1- 53.2 33.44--
2026-08-31 10:50 am SW 2.9-----30.01- 61.0- 53.4 33.43--
2026-08-31 10:40 am S 5.1-----30.01- 60.3- 52.9 33.43--
2026-08-31 10:30 am S 2.9-----30.01- 60.6- 52.9 33.43--
2026-08-31 10:20 amSSW 4.1-----30.01- 60.1- 52.2 33.43--
2026-08-31 10:10 amESE 1.9-----30.01- 60.3- 52.3 33.43--
2026-08-31 10:06 am SE 1.9-----30.01- 59.9- 52.2 33.43--
2026-08-31 10:00 amESE 1.9-----30.01+0.05 59.7- 52.2 33.43--
2026-08-31 09:50 am SE 4.1-----30.01- 59.9- 52.2 33.43--
2026-08-31 09:40 am E 1.9-----30.01- 60.1- 52.3 33.43--
2026-08-31 09:30 am NE 1.0-----30.01- 59.9- 52.5 33.43--
2026-08-31 09:20 am- 0.0-----30.00- 59.7- 52.7 33.43--
2026-08-31 09:10 am N 2.9-----30.00- 59.4- 52.5 33.43--
2026-08-31 09:06 amNNE 2.9-----30.00- 59.2- 52.3 33.43--
2026-08-31 09:00 am N 1.9-----30.00+0.04 59.4- 52.3 33.43--
2026-08-31 08:50 am NE 2.9-----29.99- 59.4- 52.7 33.43--
2026-08-31 08:40 amSSW 2.9-----29.99- 58.6- 52.3 33.43--
2026-08-31 08:30 am W 2.9-----29.99- 58.5- 52.3 33.43--
2026-08-31 08:20 am N 4.1-----29.99- 58.5- 52.3 33.43--
2026-08-31 08:10 am NW 6.0-----29.98- 58.1- 52.3 33.43--
2026-08-31 08:06 am NW 7.0-----29.98- 57.9- 52.3 33.43--
2026-08-31 08:00 amWNW 7.0-----29.99+0.04 57.7- 52.2 33.43--
2026-08-31 07:50 amWNW 7.0-----29.99- 57.7- 52.3 33.42--

Ocean Conditions at CPXC1 as of
(6:42 am PDT)
1342 GMT on 09/01/2026:

These oceanographic data are displayed in rounded times.

     

Click on the graph icon in the table below to see a time series plot of the last five days of that observation.

Depth (DEPTH): 3.3 ft
5-day plot - Ocean Temperature Ocean Temperature (OTMP):60.46 °F
5-day plot - Salinity Salinity (SAL):33.43 psu
5-day plot - Chlorophyll Chlorophyll (CLCON): 1.54 ug/l
5-day plot - Turbidity Turbidity (TURB): 1 FTU
Previous observations
TIME
(PDT)
DEPTH
ft
5-day plot - Ocean Temperature
OTMP
°F
5-day plot - Conductivity
COND
mS/cm
5-day plot - Salinity
SAL
psu
5-day plot - Oxygen Saturation
O2%
%
5-day plot - Oxygen Concentration
O2PPM
ppm
5-day plot - Chlorophyll
CLCON
ug/l
5-day plot - Turbidity
TURB
FTU
5-day plot - pH
PH
 
5-day plot - Eh
EH
mV
2026-09-01 06:41 am 9.860.31-33.44-- 1.49 1--
2026-09-01 06:40 am 23.058.86-33.43-- 1.31 1--
2026-09-01 06:39 am 29.558.51-33.44-- 1.07 1--
2026-09-01 06:38 am 32.858.26-33.43-- 0.89 1--
2026-09-01 06:34 am 13.159.72-33.41-- 1.65 1--
2026-09-01 06:33 am 6.660.42-33.43-- 1.54 1--
2026-09-01 06:12 am 3.360.44-33.44-- 1.35 1--
2026-09-01 06:11 am 9.860.13-33.44-- 1.43 1--
2026-09-01 06:10 am 23.058.73-33.43-- 1.49 1--
2026-09-01 06:09 am 29.558.57-33.43-- 1.15 1--
2026-09-01 06:08 am 32.858.30-33.43-- 1.03 1--
2026-09-01 06:05 am 19.758.91-33.42-- 1.43 1--
2026-09-01 06:04 am 13.160.10-33.42-- 1.80 1--
2026-09-01 06:03 am 9.860.42-33.44-- 1.39 1--
2026-09-01 05:42 am 3.360.39-33.44-- 1.30 1--
2026-09-01 05:41 am 13.159.41-33.43-- 1.38 1--
2026-09-01 05:40 am 23.058.64-33.43-- 1.35 1--
2026-09-01 05:39 am 29.558.46-33.43-- 1.03 1--
2026-09-01 05:38 am 32.858.15-33.43-- 0.93 1--
2026-09-01 05:34 am 13.160.06-33.42-- 2.33 1--
2026-09-01 05:33 am 9.860.40-33.44-- 1.35 1--
2026-09-01 05:12 am 3.360.35-33.44-- 1.25 1--
2026-09-01 05:11 am 9.859.72-33.43-- 1.81 1--
2026-09-01 05:10 am 23.058.64-33.42-- 1.46 1--
2026-09-01 05:09 am 29.558.32-33.43-- 1.05 1--
2026-09-01 05:08 am 32.858.10-33.43-- 0.90 1--
2026-09-01 05:05 am 19.758.87-33.42-- 1.56 1--
2026-09-01 05:04 am 13.159.56-33.42-- 1.74 1--
2026-09-01 05:03 am 9.860.13-33.42-- 1.14 1--
2026-09-01 04:42 am 3.360.26-33.43-- 1.10 1--
2026-09-01 04:41 am 9.859.86-33.43-- 1.20 1--
2026-09-01 04:40 am 23.058.62-33.43-- 1.60 1--
2026-09-01 04:39 am 29.558.35-33.43-- 1.16 1--
2026-09-01 04:38 am 32.858.01-33.43-- 0.98 1--
2026-09-01 04:34 am 13.159.85-33.42-- 1.30 1--
2026-09-01 04:33 am 9.860.19-33.42-- 1.11 1--
2026-09-01 04:12 am 3.359.86-33.42-- 1.25 1--
2026-09-01 04:11 am 13.159.65-33.43-- 1.39 1--
2026-09-01 04:10 am 23.058.62-33.43-- 1.79 1--
2026-09-01 04:09 am 29.558.32-33.43-- 1.30 1--
2026-09-01 04:08 am 36.157.78-33.42-- 0.96 1--
2026-09-01 04:05 am 19.759.00-33.42-- 1.71 1--
2026-09-01 04:04 am 16.459.79-33.42-- 1.38 1--
2026-09-01 04:03 am 9.859.85-33.42-- 1.29 1--
2026-09-01 03:42 am 6.659.70-33.43-- 1.69 1--
2026-09-01 03:41 am 13.159.56-33.43-- 1.98 1--
2026-09-01 03:40 am 23.058.57-33.43-- 1.75 1--
2026-09-01 03:39 am 29.558.03-33.43-- 1.17 1--
2026-09-01 03:38 am 36.157.67-33.43-- 0.89 1--
2026-09-01 03:34 am 16.459.16-33.41-- 2.13 1--
2026-09-01 03:33 am 9.859.68-33.43-- 1.50 1--
2026-09-01 03:12 am 6.659.52-33.43-- 1.49 1--
2026-09-01 03:11 am 16.458.77-33.43-- 2.00 1--
2026-09-01 03:10 am 26.258.33-33.44-- 1.64 1--
2026-09-01 03:09 am 32.857.74-33.43-- 0.99 1--
2026-09-01 03:08 am 36.157.56-33.43-- 0.84 1--
2026-09-01 03:05 am 19.758.82-33.43-- 1.81 1--
2026-09-01 03:04 am 13.159.16-33.42-- 1.87 1--
2026-09-01 03:03 am 9.859.50-33.42-- 1.52 1--
2026-09-01 02:42 am 6.659.58-33.43-- 1.66 1--
2026-09-01 02:41 am 16.458.82-33.44-- 1.87 1--
2026-09-01 02:40 am 26.258.19-33.43-- 1.58 1--
2026-09-01 02:39 am 32.857.79-33.43-- 0.98 1--
2026-09-01 02:38 am 36.157.58-33.42-- 0.83 1--
2026-09-01 02:34 am 13.159.36-33.43-- 1.90 1--
2026-09-01 02:33 am 9.859.52-33.43-- 1.56 1--
2026-09-01 02:12 am 6.659.61-33.44-- 1.70 1--
2026-09-01 02:11 am 16.458.86-33.44-- 1.83 1--
2026-09-01 02:10 am 26.258.05-33.44-- 1.54 1--
2026-09-01 02:09 am 32.857.34-33.43-- 0.73 1--
2026-09-01 02:08 am 36.157.25-33.42-- 0.67 1--
2026-09-01 02:05 am 19.758.77-33.42-- 1.62 1--
2026-09-01 02:04 am 16.459.47-33.43-- 1.81 1--
2026-09-01 02:03 am 9.859.61-33.43-- 1.66 1--
2026-09-01 01:42 am 6.659.61-33.43-- 1.62 1--
2026-09-01 01:41 am 16.458.73-33.44-- 1.69 1--
2026-09-01 01:40 am 26.257.99-33.42-- 1.61 1--
2026-09-01 01:39 am 32.857.47-33.43-- 0.81 1--
2026-09-01 01:38 am 36.157.25-33.42-- 0.72 2--
2026-09-01 01:34 am 16.459.22-33.43-- 1.68 1--
2026-09-01 01:33 am 9.859.61-33.43-- 1.60 1--
2026-09-01 01:12 am 6.659.58-33.44-- 1.54 1--
2026-09-01 01:11 am 13.159.34-33.44-- 1.60 1--
2026-09-01 01:10 am 23.057.97-33.43-- 1.53 1--
2026-09-01 01:09 am 29.557.34-33.43-- 0.82 1--
2026-09-01 01:08 am 36.157.24-33.42-- 0.73 1--
2026-09-01 01:05 am 23.057.96-33.43-- 1.51 1--
2026-09-01 01:04 am 16.459.47-33.43-- 1.64 1--
2026-09-01 01:03 am 9.859.77-33.43-- 1.36 1--
2026-09-01 12:42 am 6.659.70-33.41-- 1.27 1--
2026-09-01 12:41 am 13.159.49-33.44-- 1.60 1--
2026-09-01 12:40 am 23.057.70-33.43-- 1.48 1--
2026-09-01 12:39 am 29.557.24-33.42-- 0.88 1--
2026-09-01 12:38 am 36.157.20-33.42-- 0.82 1--
2026-09-01 12:34 am 16.459.56-33.43-- 1.59 1--
2026-09-01 12:33 am 9.859.72-33.41-- 1.28 1--
2026-09-01 12:12 am 6.659.99-33.43-- 1.35 1--
2026-09-01 12:11 am 16.457.81-33.43-- 1.46 1--
2026-09-01 12:10 am 26.257.36-33.43-- 0.97 1--
2026-09-01 12:09 am 32.857.22-33.42-- 0.90 1--
2026-09-01 12:08 am 36.157.20-33.42-- 0.91 2--
2026-09-01 12:05 am 19.757.78-33.42-- 1.26 1--
2026-09-01 12:04 am 16.459.02-33.42-- 1.64 1--
2026-09-01 12:03 am 9.860.19-33.42-- 1.22 1--
2026-08-31 11:42 pm 6.660.08-33.40-- 1.25 1--
2026-08-31 11:41 pm 16.458.03-33.44-- 1.58 1--
2026-08-31 11:40 pm 26.257.42-33.43-- 1.02 1--
2026-08-31 11:39 pm 32.857.34-33.43-- 0.99 1--
2026-08-31 11:38 pm 36.157.34-33.42-- 0.94 1--
2026-08-31 11:34 pm 13.159.58-33.44-- 1.58 1--
2026-08-31 11:33 pm 9.859.79-33.44-- 1.21 1--
2026-08-31 11:12 pm 6.659.79-33.45-- 1.54 1--
2026-08-31 11:11 pm 13.159.40-33.45-- 1.52 1--
2026-08-31 11:10 pm 23.057.63-33.43-- 1.23 1--
2026-08-31 11:09 pm 29.557.45-33.43-- 0.92 1--
2026-08-31 11:08 pm 36.157.43-33.42-- 0.94 1--
2026-08-31 11:05 pm 23.057.94-33.43-- 1.30 1--
2026-08-31 11:04 pm 16.459.54-33.42-- 1.57 1--
2026-08-31 11:03 pm 9.859.86-33.44-- 1.07 1--
2026-08-31 10:42 pm 6.659.97-33.44-- 1.39 2--
2026-08-31 10:41 pm 13.159.41-33.44-- 1.45 1--
2026-08-31 10:40 pm 23.057.90-33.43-- 1.31 1--
2026-08-31 10:39 pm 29.557.58-33.43-- 0.97 1--
2026-08-31 10:38 pm 36.157.52-33.43-- 0.93 2--
2026-08-31 10:34 pm 13.159.59-33.44-- 1.51 1--
2026-08-31 10:33 pm 9.859.92-33.44-- 1.38 2--
2026-08-31 10:12 pm 3.359.81-33.46-- 1.55 1--
2026-08-31 10:11 pm 9.859.63-33.44-- 1.50 1--
2026-08-31 10:10 pm 19.757.88-33.43-- 1.20 1--
2026-08-31 10:09 pm 29.557.76-33.44-- 0.94 1--
2026-08-31 10:08 pm 36.157.70-33.43-- 0.91 2--
2026-08-31 10:05 pm 23.057.97-33.43-- 1.09 1--
2026-08-31 10:04 pm 16.459.45-33.43-- 1.47 1--
2026-08-31 10:03 pm 9.859.70-33.44-- 1.43 1--
2026-08-31 09:42 pm 3.359.86-33.43-- 1.55 2--
2026-08-31 09:41 pm 13.159.43-33.44-- 1.52 1--
2026-08-31 09:40 pm 23.057.87-33.43-- 1.05 1--
2026-08-31 09:39 pm 29.557.81-33.43-- 1.00 1--
2026-08-31 09:38 pm 32.857.81-33.43-- 0.94 2--
2026-08-31 09:34 pm 13.159.59-33.43-- 1.40 1--
2026-08-31 09:33 pm 9.859.65-33.43-- 1.44 1--
2026-08-31 09:12 pm 3.359.58-33.44-- 1.38 1--
2026-08-31 09:11 pm 9.859.47-33.44-- 1.40 1--
2026-08-31 09:10 pm 23.058.17-33.44-- 1.18 1--
2026-08-31 09:09 pm 29.557.97-33.43-- 1.04 2--
2026-08-31 09:08 pm 32.857.96-33.43-- 1.05 2--
2026-08-31 09:05 pm 19.758.24-33.43-- 1.22 1--
2026-08-31 09:04 pm 13.159.31-33.43-- 1.33 1--
2026-08-31 09:03 pm 6.659.56-33.44-- 1.45 1--
2026-08-31 08:42 pm 3.359.58-33.44-- 1.48 1--
2026-08-31 08:41 pm 9.859.54-33.44-- 1.31 1--
2026-08-31 08:40 pm 19.758.78-33.44-- 1.22 1--
2026-08-31 08:39 pm 26.258.23-33.43-- 1.24 1--
2026-08-31 08:38 pm 32.858.21-33.43-- 1.16 2--
2026-08-31 08:34 pm 13.159.45-33.44-- 1.22 1--
2026-08-31 08:33 pm 9.859.54-33.44-- 1.36 1--
2026-08-31 08:11 pm 6.659.65-33.44-- 1.44 1--
2026-08-31 08:10 pm 16.459.09-33.44-- 1.24 1--
2026-08-31 08:09 pm 23.058.46-33.43-- 1.33 1--
2026-08-31 08:08 pm 32.858.33-33.43-- 1.15 2--
2026-08-31 08:05 pm 23.058.35-33.43-- 1.25 2--
2026-08-31 08:04 pm 16.459.05-33.43-- 1.17 1--
2026-08-31 08:03 pm 9.859.45-33.43-- 1.37 1--
2026-08-31 07:41 pm 9.859.61-33.44-- 0.99 1--
2026-08-31 07:40 pm 19.759.14-33.44-- 1.10 1--
2026-08-31 07:39 pm 26.258.84-33.44-- 1.27 1--
2026-08-31 07:38 pm 32.858.42-33.43-- 1.29 1--
2026-08-31 07:34 pm 13.159.38-33.43-- 1.17 1--
2026-08-31 07:33 pm 9.859.68-33.44-- 1.10 1--
2026-08-31 07:11 pm 9.859.61-33.44-- 1.07 1--
2026-08-31 07:10 pm 19.759.14-33.44-- 1.06 1--
2026-08-31 07:09 pm 26.258.51-33.43-- 1.28 1--
2026-08-31 07:08 pm 32.858.42-33.43-- 1.24 2--
2026-08-31 07:05 pm 19.759.41-33.43-- 1.07 1--
2026-08-31 07:04 pm 13.159.61-33.44-- 1.05 1--
2026-08-31 07:03 pm 9.859.70-33.44-- 1.18 1--
2026-08-31 06:41 pm 9.859.68-33.44-- 1.12 1--
2026-08-31 06:40 pm 19.759.31-33.43-- 1.01 1--
2026-08-31 06:39 pm 26.258.53-33.43-- 1.36 1--
2026-08-31 06:38 pm 32.858.48-33.43-- 1.32 1--
2026-08-31 06:34 pm 16.459.70-33.44-- 1.06 1--
2026-08-31 06:33 pm 9.859.77-33.44-- 1.06 1--
2026-08-31 06:12 pm 3.359.74-33.44-- 1.21 1--
2026-08-31 06:11 pm 9.859.72-33.44-- 1.26 1--
2026-08-31 06:10 pm 19.759.11-33.44-- 1.25 1--
2026-08-31 06:09 pm 26.258.57-33.43-- 1.41 1--
2026-08-31 06:08 pm 32.858.57-33.43-- 1.30 2--
2026-08-31 06:05 pm 19.759.34-33.43-- 1.10 1--
2026-08-31 06:04 pm 13.159.67-33.44-- 1.08 1--
2026-08-31 06:03 pm 9.859.83-33.44-- 1.10 1--
2026-08-31 05:42 pm 3.359.97-33.44-- 1.14 1--
2026-08-31 05:41 pm 9.859.74-33.44-- 1.08 1--
2026-08-31 05:40 pm 19.759.23-33.44-- 1.09 1--
2026-08-31 05:39 pm 29.558.60-33.43-- 1.42 1--
2026-08-31 05:38 pm 32.858.60-33.43-- 1.20 2--
2026-08-31 05:34 pm 16.459.59-33.43-- 1.08 1--
2026-08-31 05:33 pm 9.860.03-33.43-- 1.11 1--
2026-08-31 05:12 pm 3.360.06-33.44-- 1.15 1--
2026-08-31 05:11 pm 9.859.94-33.44-- 1.12 1--
2026-08-31 05:10 pm 23.059.00-33.45-- 1.16 1--
2026-08-31 05:09 pm 29.558.66-33.43-- 1.41 1--
2026-08-31 05:08 pm 32.858.62-33.43-- 1.33 2--
2026-08-31 05:05 pm 19.759.32-33.43-- 1.25 1--
2026-08-31 05:04 pm 13.159.97-33.44-- 1.09 1--
2026-08-31 05:03 pm 9.860.01-33.44-- 1.16 1--
2026-08-31 04:42 pm 3.360.19-33.44-- 1.12 1--
2026-08-31 04:41 pm 13.159.72-33.44-- 1.12 1--
2026-08-31 04:40 pm 23.058.71-33.43-- 1.44 1--
2026-08-31 04:39 pm 29.558.64-33.43-- 1.40 1--
2026-08-31 04:38 pm 32.858.62-33.43-- 1.35 2--
2026-08-31 04:34 pm 13.160.12-33.43-- 1.17 1--
2026-08-31 04:33 pm 9.860.24-33.44-- 1.19 1--
2026-08-31 04:12 pm 3.360.35-33.44-- 1.14 1--
2026-08-31 04:11 pm 13.159.68-33.44-- 1.19 1--
2026-08-31 04:10 pm 23.058.71-33.43-- 1.81 1--
2026-08-31 04:09 pm 29.558.64-33.43-- 1.34 1--
2026-08-31 04:08 pm 36.158.60-33.43-- 1.31 2--
2026-08-31 04:05 pm 23.058.96-33.42-- 1.56 1--
2026-08-31 04:04 pm 16.460.03-33.43-- 1.15 1--
2026-08-31 04:03 pm 9.860.31-33.44-- 1.15 1--
2026-08-31 03:42 pm 6.660.55-33.44-- 1.16 1--
2026-08-31 03:41 pm 13.159.72-33.44-- 1.18 1--
2026-08-31 03:40 pm 23.058.80-33.43-- 1.57 1--
2026-08-31 03:39 pm 29.558.66-33.43-- 1.37 1--
2026-08-31 03:38 pm 36.158.60-33.43-- 1.35 2--
2026-08-31 03:34 pm 16.460.13-33.44-- 1.26 1--
2026-08-31 03:33 pm 9.860.46-33.44-- 1.12 1--
2026-08-31 03:12 pm 6.660.80-33.44-- 1.11 1--
2026-08-31 03:11 pm 13.160.24-33.44-- 1.22 1--
2026-08-31 03:10 pm 23.058.87-33.43-- 1.82 1--
2026-08-31 03:09 pm 32.858.62-33.43-- 1.35 1--
2026-08-31 03:08 pm 36.158.60-33.44-- 1.45 2--
2026-08-31 03:05 pm 23.058.87-33.43-- 1.68 1--
2026-08-31 03:04 pm 16.460.26-33.40-- 1.29 1--
2026-08-31 03:03 pm 9.860.73-33.44-- 1.18 1--
2026-08-31 02:42 pm 6.660.93-33.44-- 1.27 1--
2026-08-31 02:41 pm 16.459.76-33.45-- 1.35 1--
2026-08-31 02:40 pm 26.258.91-33.43-- 1.70 1--
2026-08-31 02:39 pm 32.858.62-33.44-- 1.37 2--
2026-08-31 02:38 pm 36.158.60-33.44-- 1.35 2--
2026-08-31 02:34 pm 16.459.45-33.44-- 1.30 1--
2026-08-31 02:33 pm 9.860.87-33.44-- 1.22 1--
2026-08-31 02:12 pm 9.860.75-33.45-- 0.97 1--
2026-08-31 02:11 pm 16.459.38-33.44-- 1.34 1--
2026-08-31 02:10 pm 26.258.93-33.44-- 1.46 1--
2026-08-31 02:09 pm 32.858.62-33.44-- 1.31 2--
2026-08-31 02:08 pm 36.158.57-33.44-- 1.25 2--
2026-08-31 02:05 pm 23.059.11-33.43-- 1.49 1--
2026-08-31 02:04 pm 16.459.31-33.44-- 1.42 1--
2026-08-31 02:03 pm 9.860.91-33.44-- 1.24 1--
2026-08-31 01:42 pm 6.660.98-33.44-- 1.19 1--
2026-08-31 01:41 pm 13.159.43-33.44-- 1.39 1--
2026-08-31 01:40 pm 26.259.11-33.44-- 1.57 1--
2026-08-31 01:39 pm 32.858.86-33.43-- 1.46 1--
2026-08-31 01:38 pm 36.158.64-33.44-- 1.18 2--
2026-08-31 01:34 pm 16.459.52-33.43-- 1.46 1--
2026-08-31 01:33 pm 9.860.91-33.44-- 1.15 1--
2026-08-31 01:12 pm 6.660.93-33.44-- 1.04 1--
2026-08-31 01:11 pm 13.159.40-33.44-- 1.19 1--
2026-08-31 01:10 pm 23.059.00-33.44-- 1.49 1--
2026-08-31 01:09 pm 32.858.66-33.44-- 1.33 1--
2026-08-31 01:08 pm 36.158.46-33.44-- 1.08 2--
2026-08-31 01:05 pm 23.059.05-33.43-- 1.46 1--
2026-08-31 01:04 pm 16.459.36-33.43-- 1.24 1--
2026-08-31 01:03 pm 9.860.42-33.43-- 1.02 1--
2026-08-31 01:02 pm 3.361.11-33.44-- 0.97 1--
2026-08-31 12:42 pm 9.859.97-33.44-- 0.93 1--
2026-08-31 12:41 pm 16.459.13-33.44-- 1.10 1--
2026-08-31 12:40 pm 26.258.87-33.44-- 1.49 1--
2026-08-31 12:39 pm 32.858.60-33.44-- 1.19 1--
2026-08-31 12:38 pm 36.158.37-33.44-- 1.05 2--
2026-08-31 12:34 pm 16.459.31-33.43-- 0.92 1--
2026-08-31 12:33 pm 9.860.51-33.41-- 0.88 1--
2026-08-31 12:12 pm 9.859.85-33.44-- 1.14 1--
2026-08-31 12:11 pm 16.459.27-33.44-- 1.18 1--
2026-08-31 12:10 pm 26.258.82-33.44-- 1.43 1--
2026-08-31 12:09 pm 36.158.41-33.44-- 1.17 1--
2026-08-31 12:05 pm 23.059.05-33.43-- 1.27 1--
2026-08-31 12:04 pm 16.459.61-33.42-- 1.27 1--
2026-08-31 12:03 pm 9.860.46-33.43-- 0.71 1--
2026-08-31 11:42 am 9.859.68-33.44-- 0.74 1--
2026-08-31 11:41 am 16.459.13-33.44-- 1.09 1--
2026-08-31 11:40 am 26.258.73-33.44-- 1.23 1--
2026-08-31 11:39 am 32.858.46-33.44-- 1.12 2--
2026-08-31 11:38 am 36.158.33-33.44-- 0.99 2--
2026-08-31 11:34 am 16.459.65-33.43-- 0.83 1--
2026-08-31 11:33 am 9.860.26-33.42-- 0.76 1--
2026-08-31 11:12 am 6.660.17-33.44-- 0.80 1--
2026-08-31 11:11 am 13.159.43-33.44-- 0.85 1--
2026-08-31 11:10 am 23.059.05-33.44-- 1.26 1--
2026-08-31 11:09 am 32.858.62-33.44-- 1.17 1--
2026-08-31 11:08 am 36.158.50-33.44-- 1.03 2--
2026-08-31 11:05 am 23.058.96-33.43-- 1.22 1--
2026-08-31 11:04 am 16.459.32-33.43-- 0.94 1--
2026-08-31 11:03 am 9.860.12-33.42-- 0.93 1--
2026-08-31 10:42 am 6.660.31-33.43-- 1.23 1--
2026-08-31 10:41 am 13.159.85-33.44-- 1.00 1--
2026-08-31 10:40 am 23.059.20-33.44-- 1.01 1--
2026-08-31 10:39 am 29.558.71-33.44-- 1.20 1--
2026-08-31 10:38 am 36.158.48-33.44-- 1.10 1--
2026-08-31 10:34 am 16.459.54-33.43-- 0.87 1--
2026-08-31 10:33 am 9.860.17-33.43-- 1.07 1--
2026-08-31 10:12 am 6.660.01-33.43-- 1.41 1--
2026-08-31 10:11 am 13.159.77-33.43-- 1.38 1--
2026-08-31 10:10 am 23.059.16-33.44-- 1.06 1--
2026-08-31 10:09 am 32.858.53-33.44-- 1.16 1--
2026-08-31 10:08 am 36.158.42-33.43-- 1.14 1--
2026-08-31 10:05 am 23.059.40-33.42-- 0.94 1--
2026-08-31 10:04 am 16.459.81-33.43-- 1.32 1--
2026-08-31 10:03 am 9.860.22-33.42-- 1.52 1--
2026-08-31 09:42 am 6.659.85-33.43-- 1.48 1--
2026-08-31 09:41 am 13.159.34-33.44-- 1.09 1--
2026-08-31 09:40 am 26.258.68-33.44-- 1.20 1--
2026-08-31 09:39 am 32.858.44-33.43-- 1.14 1--
2026-08-31 09:38 am 36.158.17-33.43-- 1.05 1--
2026-08-31 09:34 am 16.459.56-33.43-- 1.10 1--
2026-08-31 09:33 am 9.860.08-33.42-- 1.90 1--
2026-08-31 09:12 am 6.660.06-33.43-- 1.54 1--
2026-08-31 09:11 am 13.159.79-33.43-- 1.34 1--
2026-08-31 09:10 am 23.059.05-33.44-- 1.08 1--
2026-08-31 09:09 am 29.558.78-33.44-- 1.19 1--
2026-08-31 09:08 am 36.158.21-33.43-- 1.22 1--
2026-08-31 09:05 am 19.759.29-33.43-- 1.11 1--
2026-08-31 09:04 am 16.459.58-33.43-- 1.08 1--
2026-08-31 09:03 am 9.860.22-33.42-- 1.77 1--
2026-08-31 08:42 am 3.360.17-33.43-- 1.88 1--
2026-08-31 08:41 am 13.159.41-33.44-- 1.60 1--
2026-08-31 08:40 am 23.059.05-33.44-- 1.29 1--
2026-08-31 08:39 am 29.558.42-33.44-- 1.23 1--
2026-08-31 08:38 am 36.158.01-33.43-- 1.09 1--
2026-08-31 08:34 am 16.459.38-33.43-- 1.14 1--
2026-08-31 08:33 am 9.860.03-33.42-- 1.80 1--
2026-08-31 08:12 am 3.360.15-33.43-- 1.49 1--
2026-08-31 08:11 am 9.859.67-33.44-- 1.35 1--
2026-08-31 08:10 am 23.059.23-33.44-- 1.35 1--
2026-08-31 08:09 am 29.558.41-33.43-- 1.15 1--
2026-08-31 08:08 am 32.858.12-33.43-- 1.03 1--
2026-08-31 08:05 am 19.759.32-33.43-- 1.42 1--
2026-08-31 08:04 am 16.459.56-33.44-- 1.09 1--
2026-08-31 08:03 am 9.859.90-33.44-- 1.68 1--